createdAt,value
2023-05-14T00:00:57.789Z,58.94
2023-05-14T00:01:58.758Z,59.55
2023-05-14T00:02:59.739Z,59.78
2023-05-14T00:04:00.411Z,59.88
2023-05-14T00:05:00.805Z,60.08
2023-05-14T00:06:01.719Z,59.65
2023-05-14T00:07:02.579Z,59.25
2023-05-14T00:08:03.489Z,58.81
2023-05-14T00:09:04.323Z,58.61
2023-05-14T00:10:05.205Z,58.71
2023-05-14T00:11:06.093Z,59.55
2023-05-14T00:12:06.989Z,60.66
2023-05-14T00:13:07.877Z,60.77
2023-05-14T00:14:08.770Z,59.91
2023-05-14T00:15:09.632Z,58.22
2023-05-14T00:16:10.638Z,60.47
2023-05-14T00:17:11.041Z,59.59
2023-05-14T00:18:11.938Z,60.91
2023-05-14T00:19:12.841Z,61.95
2023-05-14T00:20:13.693Z,62.46
2023-05-14T00:21:14.618Z,63.17
2023-05-14T00:22:15.476Z,63.04
2023-05-14T00:23:16.352Z,60.75
2023-05-14T00:24:17.261Z,59.41
2023-05-14T00:25:18.152Z,57.73
2023-05-14T00:26:19.043Z,56.82
2023-05-14T00:27:19.916Z,56.71
2023-05-14T00:28:20.799Z,58.06
2023-05-14T00:29:21.680Z,58.80
2023-05-14T00:30:22.899Z,59.53
2023-05-14T00:31:23.463Z,59.74
2023-05-14T00:32:24.316Z,60.58
2023-05-14T00:33:25.183Z,60.98
2023-05-14T00:34:26.980Z,61.41
2023-05-14T00:35:26.847Z,61.11
2023-05-14T00:36:27.762Z,61.52
2023-05-14T00:37:28.626Z,61.72
2023-05-14T00:38:29.520Z,61.41
2023-05-14T00:39:30.379Z,60.44
2023-05-14T00:40:31.246Z,58.97
2023-05-14T00:41:32.138Z,57.90
2023-05-14T00:42:33.027Z,57.29
2023-05-14T00:43:33.882Z,57.73
2023-05-14T00:44:34.742Z,58.06
2023-05-14T00:45:35.608Z,58.90
2023-05-14T00:46:36.568Z,59.63
2023-05-14T00:47:37.552Z,60.17
2023-05-14T00:48:38.438Z,60.30
2023-05-14T00:49:39.299Z,60.71
2023-05-14T00:50:40.177Z,60.81
2023-05-14T00:51:40.781Z,60.91
2023-05-14T00:52:41.639Z,61.11
2023-05-14T00:53:42.519Z,60.58
2023-05-14T00:54:43.400Z,59.74
2023-05-14T00:55:44.284Z,58.16
2023-05-14T00:56:45.186Z,58.06
2023-05-14T00:57:46.057Z,57.42
2023-05-14T00:58:46.933Z,56.82
2023-05-14T00:59:47.818Z,57.12
2023-05-14T01:00:48.800Z,57.35
2023-05-14T01:01:49.696Z,57.35
2023-05-14T01:02:50.654Z,57.35
2023-05-14T01:03:51.244Z,58.39
2023-05-14T01:04:51.633Z,59.30
2023-05-14T01:05:52.533Z,59.94
2023-05-14T01:06:53.422Z,59.84
2023-05-14T01:07:54.300Z,59.94
2023-05-14T01:08:55.170Z,61.08
2023-05-14T01:09:56.048Z,60.17
2023-05-14T01:10:56.916Z,60.37
2023-05-14T01:11:59.243Z,60.60
2023-05-14T01:12:58.606Z,61.21
2023-05-14T01:13:59.496Z,61.21
2023-05-14T01:15:00.350Z,61.11
2023-05-14T01:16:01.236Z,60.68
2023-05-14T01:17:02.128Z,61.90
2023-05-14T01:18:03.041Z,60.98
2023-05-14T01:19:03.987Z,61.18
2023-05-14T01:20:04.917Z,60.98
2023-05-14T01:21:05.751Z,60.98
2023-05-14T01:22:06.681Z,60.98
2023-05-14T01:23:07.540Z,59.66
2023-05-14T01:24:08.451Z,59.59
2023-05-14T01:25:09.325Z,60.30
2023-05-14T01:26:10.231Z,60.60
2023-05-14T01:27:11.117Z,61.11
2023-05-14T01:28:11.994Z,62.43
2023-05-14T01:29:12.873Z,63.04
2023-05-14T01:30:13.756Z,63.34
2023-05-14T01:31:14.677Z,63.88
2023-05-14T01:32:15.562Z,63.95
2023-05-14T01:33:16.442Z,62.84
2023-05-14T01:34:17.316Z,62.76
2023-05-14T01:35:18.211Z,62.66
2023-05-14T01:36:19.075Z,62.56
2023-05-14T01:37:19.995Z,62.39
2023-05-14T01:38:20.872Z,63.23
2023-05-14T01:39:21.742Z,63.84
2023-05-14T01:40:22.796Z,64.18
2023-05-14T01:41:23.284Z,65.19
2023-05-14T01:42:24.244Z,64.58
2023-05-14T01:43:25.144Z,64.79
2023-05-14T01:44:26.031Z,65.57
2023-05-14T01:45:26.928Z,66.49
2023-05-14T01:46:27.856Z,66.58
2023-05-14T01:47:28.804Z,66.99
2023-05-14T01:48:29.663Z,67.10
2023-05-14T01:49:30.551Z,67.83
2023-05-14T01:50:31.435Z,67.60
2023-05-14T01:51:32.324Z,67.63
2023-05-14T01:52:33.232Z,67.53
2023-05-14T01:53:34.118Z,66.72
2023-05-14T01:54:34.988Z,65.50
2023-05-14T01:55:35.854Z,65.80
2023-05-14T01:56:36.759Z,65.53
2023-05-14T01:57:37.685Z,65.43
2023-05-14T01:58:38.553Z,64.75
2023-05-14T01:59:39.450Z,64.64
2023-05-14T02:00:40.316Z,65.19
2023-05-14T02:01:41.420Z,65.49
2023-05-14T02:02:41.849Z,66.07
2023-05-14T02:03:42.808Z,66.47
2023-05-14T02:04:43.655Z,66.78
2023-05-14T02:05:44.553Z,66.65
2023-05-14T02:06:45.421Z,66.35
2023-05-14T02:07:46.354Z,66.41
2023-05-14T02:08:47.243Z,65.88
2023-05-14T02:09:48.116Z,65.97
2023-05-14T02:10:48.983Z,66.38
2023-05-14T02:11:49.859Z,66.55
2023-05-14T02:12:50.779Z,66.55
2023-05-14T02:13:51.663Z,67.30
2023-05-14T02:14:52.532Z,67.30
2023-05-14T02:15:53.456Z,66.89
2023-05-14T02:16:54.326Z,66.89
2023-05-14T02:17:55.239Z,67.63
2023-05-14T02:18:56.137Z,67.33
2023-05-14T02:19:56.977Z,66.44
2023-05-14T02:20:57.880Z,67.87
2023-05-14T02:21:58.864Z,67.49
2023-05-14T02:22:59.755Z,67.90
2023-05-14T02:24:00.604Z,66.20
2023-05-14T02:25:01.513Z,65.49
2023-05-14T02:26:02.355Z,66.50
2023-05-14T02:27:03.272Z,67.32
2023-05-14T02:28:04.150Z,68.85
2023-05-14T02:29:05.031Z,69.59
2023-05-14T02:30:05.910Z,69.59
2023-05-14T02:31:06.843Z,70.14
2023-05-14T02:32:07.741Z,70.14
2023-05-14T02:33:08.724Z,69.83
2023-05-14T02:34:09.182Z,69.63
2023-05-14T02:35:10.074Z,70.24
2023-05-14T02:36:10.913Z,70.44
2023-05-14T02:37:11.794Z,70.54
2023-05-14T02:38:12.724Z,70.51
2023-05-14T02:39:13.584Z,70.10
2023-05-14T02:40:14.461Z,68.95
2023-05-14T02:41:15.346Z,67.57
2023-05-14T02:42:16.272Z,66.08
2023-05-14T02:43:17.159Z,64.39
2023-05-14T02:44:18.050Z,62.13
2023-05-14T02:45:18.931Z,61.79
2023-05-14T02:46:19.943Z,61.79
2023-05-14T02:47:20.830Z,61.69
2023-05-14T02:48:21.722Z,62.23
2023-05-14T02:49:22.590Z,63.37
2023-05-14T02:50:23.860Z,63.68
2023-05-14T02:51:24.365Z,63.17
2023-05-14T02:52:25.256Z,63.81
2023-05-14T02:53:26.208Z,64.01
2023-05-14T02:54:27.086Z,64.52
2023-05-14T02:55:27.968Z,65.33
2023-05-14T02:56:28.864Z,66.28
2023-05-14T02:57:29.755Z,66.49
2023-05-14T02:58:30.676Z,65.88
2023-05-14T02:59:31.588Z,65.88
2023-05-14T03:00:32.418Z,65.16
2023-05-14T03:01:33.133Z,64.93
2023-05-14T03:02:33.973Z,64.52
2023-05-14T03:03:34.673Z,63.81
2023-05-14T03:04:35.457Z,63.30
2023-05-14T03:05:36.381Z,63.13
2023-05-14T03:06:37.262Z,63.54
2023-05-14T03:07:38.148Z,63.84
2023-05-14T03:08:39.165Z,64.15
2023-05-14T03:09:40.013Z,64.25
2023-05-14T03:10:40.925Z,64.35
2023-05-14T03:11:41.816Z,64.48
2023-05-14T03:12:42.710Z,64.89
2023-05-14T03:13:44.024Z,65.80
2023-05-14T03:14:44.415Z,67.46
2023-05-14T03:15:45.282Z,67.90
2023-05-14T03:16:45.867Z,67.90
2023-05-14T03:17:46.781Z,67.80
2023-05-14T03:18:47.720Z,66.07
2023-05-14T03:19:48.585Z,66.17
2023-05-14T03:20:49.464Z,65.86
2023-05-14T03:21:50.350Z,65.56
2023-05-14T03:22:51.214Z,65.77
2023-05-14T03:23:52.134Z,65.97
2023-05-14T03:24:53.008Z,66.07
2023-05-14T03:25:53.891Z,66.88
2023-05-14T03:26:54.759Z,67.02
2023-05-14T03:27:55.645Z,66.82
2023-05-14T03:28:56.551Z,67.19
2023-05-14T03:29:57.467Z,67.49
2023-05-14T03:30:58.443Z,68.31
2023-05-14T03:31:59.276Z,69.26
2023-05-14T03:33:00.267Z,68.65
2023-05-14T03:34:01.169Z,67.90
2023-05-14T03:35:02.050Z,67.39
2023-05-14T03:36:02.903Z,67.19
2023-05-14T03:37:03.778Z,66.99
2023-05-14T03:38:04.643Z,66.65
2023-05-14T03:39:05.572Z,66.24
2023-05-14T03:40:06.436Z,66.85
2023-05-14T03:41:07.335Z,67.49
2023-05-14T03:42:08.221Z,68.10
2023-05-14T03:43:09.088Z,67.80
2023-05-14T03:44:09.993Z,66.99
2023-05-14T03:45:10.879Z,67.19
2023-05-14T03:46:11.751Z,67.32
2023-05-14T03:47:12.614Z,67.52
2023-05-14T03:48:13.599Z,68.04
2023-05-14T03:49:14.484Z,68.48
2023-05-14T03:50:15.387Z,68.37
2023-05-14T03:51:16.228Z,67.96
2023-05-14T03:52:17.106Z,67.55
2023-05-14T03:53:17.984Z,67.86
2023-05-14T03:54:18.891Z,68.44
2023-05-14T03:55:19.736Z,68.44
2023-05-14T03:56:20.610Z,67.90
2023-05-14T03:57:21.521Z,66.78
2023-05-14T03:58:22.382Z,67.19
2023-05-14T03:59:23.318Z,67.08
2023-05-14T04:00:24.696Z,66.85
2023-05-14T04:01:24.735Z,66.55
2023-05-14T04:02:25.662Z,67.26
2023-05-14T04:03:26.572Z,67.16
2023-05-14T04:04:27.528Z,67.46
2023-05-14T04:05:28.388Z,67.90
2023-05-14T04:06:29.247Z,67.08
2023-05-14T04:07:30.125Z,67.08
2023-05-14T04:08:31.036Z,66.88
2023-05-14T04:09:31.926Z,67.43
2023-05-14T04:10:32.794Z,68.54
2023-05-14T04:11:33.671Z,68.75
2023-05-14T04:12:34.552Z,68.75
2023-05-14T04:13:35.472Z,68.75
2023-05-14T04:14:36.334Z,68.65
2023-05-14T04:15:37.198Z,67.80
2023-05-14T04:16:38.135Z,67.69
2023-05-14T04:17:38.979Z,67.05
2023-05-14T04:18:39.877Z,66.65
2023-05-14T04:19:40.732Z,66.11
2023-05-14T04:20:41.623Z,66.41
2023-05-14T04:21:42.507Z,66.72
2023-05-14T04:22:43.392Z,66.82
2023-05-14T04:23:44.276Z,66.82
2023-05-14T04:24:45.196Z,66.82
2023-05-14T04:25:46.057Z,66.82
2023-05-14T04:26:46.947Z,66.82
2023-05-14T04:27:47.809Z,66.11
2023-05-14T04:28:48.694Z,66.21
2023-05-14T04:29:49.577Z,66.72
2023-05-14T04:30:50.436Z,66.72
2023-05-14T04:31:51.385Z,66.72
2023-05-14T04:32:51.944Z,66.82
2023-05-14T04:33:52.895Z,66.61
2023-05-14T04:34:53.758Z,66.52
2023-05-14T04:35:54.647Z,67.22
2023-05-14T04:36:55.522Z,67.43
2023-05-14T04:37:56.401Z,67.13
2023-05-14T04:38:57.274Z,66.89
2023-05-14T04:39:58.175Z,66.89
2023-05-14T04:40:59.033Z,66.89
2023-05-14T04:41:59.903Z,66.38
2023-05-14T04:43:00.783Z,66.69
2023-05-14T04:44:01.653Z,67.10
2023-05-14T04:45:02.545Z,66.99
2023-05-14T04:46:03.458Z,67.19
2023-05-14T04:47:04.298Z,67.71
2023-05-14T04:48:05.213Z,67.60
2023-05-14T04:49:06.093Z,67.71
2023-05-14T04:50:06.974Z,67.80
2023-05-14T04:51:07.862Z,67.40
2023-05-14T04:52:08.745Z,67.91
2023-05-14T04:53:09.596Z,68.01
2023-05-14T04:54:10.488Z,68.21
2023-05-14T04:55:11.409Z,68.52
2023-05-14T04:56:12.247Z,68.52
2023-05-14T04:57:13.149Z,68.62
2023-05-14T04:58:14.036Z,68.52
2023-05-14T04:59:14.574Z,68.41
2023-05-14T05:00:15.462Z,68.01
2023-05-14T05:01:16.433Z,67.06
2023-05-14T05:02:17.277Z,67.36
2023-05-14T05:03:18.216Z,67.27
2023-05-14T05:04:19.195Z,67.06
2023-05-14T05:05:20.099Z,67.47
2023-05-14T05:06:20.979Z,67.67
2023-05-14T05:07:21.901Z,67.91
2023-05-14T05:08:22.782Z,68.11
2023-05-14T05:09:23.656Z,68.32
2023-05-14T05:10:24.950Z,68.62
2023-05-14T05:11:25.493Z,68.82
2023-05-14T05:12:26.378Z,69.13
2023-05-14T05:13:27.243Z,69.57
2023-05-14T05:14:28.150Z,69.46
2023-05-14T05:15:29.035Z,69.67
2023-05-14T05:16:30.082Z,69.77
2023-05-14T05:17:30.608Z,69.46
2023-05-14T05:18:31.504Z,69.36
2023-05-14T05:19:42.319Z,69.02
2023-05-14T05:20:34.178Z,68.92
2023-05-14T05:21:34.056Z,68.82
2023-05-14T05:22:34.911Z,68.92
2023-05-14T05:23:35.794Z,69.13
2023-05-14T05:24:36.645Z,69.23
2023-05-14T05:25:37.547Z,69.33
2023-05-14T05:26:38.399Z,69.33
2023-05-14T05:27:39.284Z,69.43
2023-05-14T05:28:40.161Z,69.23
2023-05-14T05:29:41.054Z,69.23
2023-05-14T05:30:41.948Z,69.53
2023-05-14T05:31:42.914Z,69.43
2023-05-14T05:32:43.853Z,69.64
2023-05-14T05:33:44.724Z,69.74
2023-05-14T05:34:45.603Z,70.04
2023-05-14T05:35:46.514Z,70.35
2023-05-14T05:36:47.385Z,70.04
2023-05-14T05:37:48.260Z,69.74
2023-05-14T05:38:49.158Z,69.20
2023-05-14T05:39:50.030Z,68.69
2023-05-14T05:40:51.272Z,68.35
2023-05-14T05:41:51.638Z,67.94
2023-05-14T05:42:52.567Z,67.64
2023-05-14T05:43:53.418Z,67.61
2023-05-14T05:44:54.282Z,67.84
2023-05-14T05:45:55.192Z,68.05
2023-05-14T05:46:56.162Z,68.42
2023-05-14T05:47:56.630Z,68.12
2023-05-14T05:48:57.525Z,68.22
2023-05-14T05:49:58.392Z,68.22
2023-05-14T05:50:59.325Z,68.22
2023-05-14T05:52:00.206Z,68.42
2023-05-14T05:53:01.091Z,68.32
2023-05-14T05:54:02.002Z,68.62
2023-05-14T05:55:02.840Z,68.52
2023-05-14T05:56:04.195Z,68.52
2023-05-14T05:57:04.557Z,68.42
2023-05-14T05:58:05.438Z,68.62
2023-05-14T05:59:06.304Z,68.70
2023-05-14T06:00:07.236Z,68.29
2023-05-14T06:01:08.185Z,67.75
2023-05-14T06:02:09.127Z,67.31
2023-05-14T06:03:10.039Z,66.91
2023-05-14T06:04:10.941Z,67.11
2023-05-14T06:05:11.839Z,67.11
2023-05-14T06:06:12.753Z,66.91
2023-05-14T06:07:13.620Z,66.80
2023-05-14T06:08:14.521Z,68.23
2023-05-14T06:09:15.418Z,68.12
2023-05-14T06:10:16.312Z,68.32
2023-05-14T06:11:17.251Z,68.15
2023-05-14T06:12:18.086Z,67.72
2023-05-14T06:13:18.968Z,67.41
2023-05-14T06:14:19.853Z,67.11
2023-05-14T06:15:20.746Z,67.31
2023-05-14T06:16:21.666Z,67.68
2023-05-14T06:17:22.569Z,67.28
2023-05-14T06:18:23.447Z,67.79
2023-05-14T06:19:24.318Z,67.79
2023-05-14T06:20:25.442Z,66.67
2023-05-14T06:21:26.018Z,65.76
2023-05-14T06:22:26.902Z,65.66
2023-05-14T06:23:27.772Z,65.53
2023-05-14T06:24:28.639Z,65.09
2023-05-14T06:25:29.557Z,63.75
2023-05-14T06:26:30.439Z,63.41
2023-05-14T06:27:31.312Z,61.56
2023-05-14T06:28:32.190Z,61.94
2023-05-14T06:29:33.157Z,61.73
2023-05-14T06:30:34.016Z,62.04
2023-05-14T06:31:34.948Z,62.24
2023-05-14T06:32:35.842Z,61.23
2023-05-14T06:33:36.713Z,61.43
2023-05-14T06:34:37.595Z,62.54
2023-05-14T06:35:38.484Z,60.55
2023-05-14T06:36:39.384Z,60.65
2023-05-14T06:37:40.252Z,61.66
2023-05-14T06:38:41.135Z,61.25
2023-05-14T06:39:42.022Z,61.25
2023-05-14T06:40:42.909Z,61.56
2023-05-14T06:41:43.818Z,61.46
2023-05-14T06:42:44.691Z,61.94
2023-05-14T06:43:45.576Z,61.94
2023-05-14T06:44:46.453Z,62.74
2023-05-14T06:45:47.284Z,62.04
2023-05-14T06:46:48.281Z,61.94
2023-05-14T06:47:48.686Z,61.40
2023-05-14T06:48:49.612Z,60.46
2023-05-14T06:49:50.452Z,59.00
2023-05-14T06:50:51.328Z,57.56
2023-05-14T06:51:52.272Z,57.76
2023-05-14T06:52:53.121Z,57.23
2023-05-14T06:53:54.007Z,57.53
2023-05-14T06:54:54.898Z,56.85
2023-05-14T06:55:55.750Z,56.65
2023-05-14T06:56:56.688Z,56.85
2023-05-14T06:57:57.547Z,57.05
2023-05-14T06:58:58.445Z,57.48
2023-05-14T06:59:59.348Z,56.17
2023-05-14T07:01:00.275Z,57.68
2023-05-14T07:02:01.191Z,57.98
2023-05-14T07:03:02.132Z,57.48
2023-05-14T07:04:03.025Z,58.29
2023-05-14T07:05:03.864Z,57.68
2023-05-14T07:06:04.773Z,57.28
2023-05-14T07:07:05.659Z,57.68
2023-05-14T07:08:06.532Z,57.25
2023-05-14T07:09:07.419Z,54.99
2023-05-14T07:10:08.292Z,54.43
2023-05-14T07:11:09.163Z,52.09
2023-05-14T07:12:10.071Z,51.06
2023-05-14T07:13:10.975Z,51.06
2023-05-14T07:14:11.824Z,51.66
2023-05-14T07:15:12.700Z,52.97
2023-05-14T07:16:13.591Z,53.30
2023-05-14T07:17:14.505Z,53.50
2023-05-14T07:18:15.403Z,52.31
2023-05-14T07:19:16.321Z,53.02
2023-05-14T07:20:17.247Z,53.95
2023-05-14T07:21:18.146Z,53.58
2023-05-14T07:22:19.065Z,54.18
2023-05-14T07:23:20.180Z,54.88
2023-05-14T07:24:20.562Z,55.56
2023-05-14T07:25:21.425Z,55.79
2023-05-14T07:26:22.314Z,56.07
2023-05-14T07:27:23.240Z,55.26
2023-05-14T07:28:24.096Z,55.29
2023-05-14T07:29:24.997Z,54.79
2023-05-14T07:30:26.155Z,55.08
2023-05-14T07:31:26.801Z,54.86
2023-05-14T07:32:27.690Z,56.60
2023-05-14T07:33:28.542Z,54.88
2023-05-14T07:34:29.423Z,54.48
2023-05-14T07:35:30.304Z,54.48
2023-05-14T07:36:31.183Z,54.08
2023-05-14T07:37:32.095Z,53.88
2023-05-14T07:38:32.994Z,53.95
2023-05-14T07:39:33.861Z,53.50
2023-05-14T07:40:34.738Z,52.67
2023-05-14T07:41:35.614Z,52.22
2023-05-14T07:42:37.445Z,51.99
2023-05-14T07:43:36.990Z,50.91
2023-05-14T07:44:37.867Z,51.01
2023-05-14T07:45:38.750Z,51.92
2023-05-14T07:46:39.660Z,51.11
2023-05-14T07:47:40.704Z,51.34
2023-05-14T07:48:41.249Z,51.04
2023-05-14T07:49:42.149Z,51.34
2023-05-14T07:50:43.044Z,51.56
2023-05-14T07:51:43.970Z,51.46
2023-05-14T07:52:44.841Z,51.97
2023-05-14T07:53:45.733Z,51.97
2023-05-14T07:54:47.981Z,52.09
2023-05-14T07:55:47.207Z,51.99
2023-05-14T07:56:48.081Z,51.99
2023-05-14T07:57:48.993Z,52.59
2023-05-14T07:58:49.860Z,53.90
2023-05-14T07:59:50.762Z,52.29
2023-05-14T08:00:51.634Z,51.76
2023-05-14T08:01:52.533Z,50.81
2023-05-14T08:02:53.481Z,49.66
2023-05-14T08:03:54.072Z,48.41
2023-05-14T08:04:54.504Z,47.56
2023-05-14T08:05:55.424Z,46.84
2023-05-14T08:06:57.118Z,46.39
2023-05-14T08:07:56.999Z,46.39
2023-05-14T08:08:57.875Z,45.00
2023-05-14T08:09:58.784Z,45.34
2023-05-14T08:10:59.751Z,47.88
2023-05-14T08:12:00.166Z,48.38
2023-05-14T08:13:01.108Z,47.71
2023-05-14T08:14:01.992Z,48.31
2023-05-14T08:15:02.890Z,47.43
2023-05-14T08:16:03.779Z,47.73
2023-05-14T08:17:04.706Z,47.03
2023-05-14T08:18:05.680Z,46.12
2023-05-14T08:19:06.611Z,46.62
2023-05-14T08:20:07.543Z,47.45
2023-05-14T08:21:08.435Z,47.05
2023-05-14T08:22:09.332Z,48.38
2023-05-14T08:23:10.237Z,48.98
2023-05-14T08:24:11.083Z,49.18
2023-05-14T08:25:11.972Z,48.88
2023-05-14T08:26:12.830Z,48.98
2023-05-14T08:27:13.722Z,49.58
2023-05-14T08:28:14.637Z,48.38
2023-05-14T08:29:16.468Z,49.08
2023-05-14T08:30:16.221Z,48.03
2023-05-14T08:31:17.182Z,47.71
2023-05-14T08:32:23.417Z,46.56
2023-05-14T08:33:19.798Z,45.51
2023-05-14T08:34:19.677Z,44.12
2023-05-14T08:35:20.569Z,43.91
2023-05-14T08:36:21.461Z,44.32
2023-05-14T08:37:22.389Z,43.74
2023-05-14T08:38:23.257Z,43.76
2023-05-14T08:39:24.144Z,44.48
2023-05-14T08:40:25.365Z,44.88
2023-05-14T08:41:25.876Z,46.20
2023-05-14T08:42:26.790Z,45.80
2023-05-14T08:43:27.733Z,45.70
2023-05-14T08:44:28.574Z,45.32
2023-05-14T08:45:29.463Z,45.42
2023-05-14T08:46:30.335Z,46.33
2023-05-14T08:47:31.320Z,46.35
2023-05-14T08:48:31.902Z,46.65
2023-05-14T08:49:32.434Z,45.65
2023-05-14T08:50:33.295Z,45.75
2023-05-14T08:51:34.186Z,45.45
2023-05-14T08:52:35.061Z,46.35
2023-05-14T08:53:35.959Z,45.54
2023-05-14T08:54:36.840Z,46.65
2023-05-14T08:55:37.738Z,46.65
2023-05-14T08:56:38.616Z,46.20
2023-05-14T08:57:39.517Z,44.56
2023-05-14T08:58:40.464Z,43.62
2023-05-14T08:59:41.287Z,43.90
2023-05-14T09:00:42.165Z,42.07
2023-05-14T09:01:43.121Z,41.27
2023-05-14T09:02:44.020Z,41.08
2023-05-14T09:03:44.978Z,41.58
2023-05-14T09:04:45.835Z,42.19
2023-05-14T09:05:46.717Z,41.91
2023-05-14T09:06:47.595Z,42.11
2023-05-14T09:07:48.480Z,43.13
2023-05-14T09:08:49.367Z,43.43
2023-05-14T09:09:50.239Z,43.13
2023-05-14T09:10:51.148Z,42.96
2023-05-14T09:11:52.031Z,44.46
2023-05-14T09:12:52.882Z,43.77
2023-05-14T09:13:53.812Z,43.77
2023-05-14T09:14:54.703Z,45.88
2023-05-14T09:15:55.638Z,46.48
2023-05-14T09:16:56.512Z,46.08
2023-05-14T09:17:57.380Z,44.28
2023-05-14T09:18:58.273Z,44.68
2023-05-14T09:19:59.164Z,44.18
2023-05-14T09:21:00.025Z,44.40
2023-05-14T09:22:00.929Z,44.50
2023-05-14T09:23:01.800Z,44.50
2023-05-14T09:24:02.701Z,44.30
2023-05-14T09:25:03.618Z,45.08
2023-05-14T09:26:04.486Z,44.43
2023-05-14T09:27:05.363Z,42.90
2023-05-14T09:28:07.164Z,41.96
2023-05-14T09:29:07.076Z,41.22
2023-05-14T09:30:07.961Z,40.00
2023-05-14T09:31:08.851Z,39.48
2023-05-14T09:32:09.731Z,39.70
2023-05-14T09:33:10.715Z,39.60
2023-05-14T09:34:11.109Z,39.72
2023-05-14T09:35:11.995Z,40.94
2023-05-14T09:36:12.872Z,40.14
2023-05-14T09:37:13.750Z,40.25
2023-05-14T09:38:14.636Z,40.95
2023-05-14T09:39:15.543Z,42.18
2023-05-14T09:40:16.422Z,42.57
2023-05-14T09:41:17.335Z,42.10
2023-05-14T09:42:18.203Z,41.80
2023-05-14T09:43:19.101Z,41.49
2023-05-14T09:44:20.005Z,41.71
2023-05-14T09:45:20.870Z,41.89
2023-05-14T09:46:21.776Z,41.17
2023-05-14T09:47:22.725Z,40.86
2023-05-14T09:48:23.614Z,40.01
2023-05-14T09:49:24.504Z,39.48
2023-05-14T09:50:25.713Z,38.67
2023-05-14T09:51:26.274Z,38.78
2023-05-14T09:52:27.155Z,38.89
2023-05-14T09:53:28.072Z,38.90
2023-05-14T09:54:28.981Z,39.40
2023-05-14T09:55:29.863Z,39.42
2023-05-14T09:56:30.749Z,40.04
2023-05-14T09:57:31.637Z,40.34
2023-05-14T09:58:32.511Z,39.94
2023-05-14T09:59:33.414Z,40.86
2023-05-14T10:00:34.280Z,41.05
2023-05-14T10:01:35.237Z,40.86
2023-05-14T10:02:35.675Z,40.66
2023-05-14T10:03:36.555Z,40.88
2023-05-14T10:04:37.470Z,41.58
2023-05-14T10:05:38.354Z,41.58
2023-05-14T10:06:39.281Z,42.19
2023-05-14T10:07:40.137Z,42.19
2023-05-14T10:08:41.045Z,42.10
2023-05-14T10:09:41.903Z,42.60
2023-05-14T10:10:42.798Z,41.60
2023-05-14T10:11:43.695Z,41.69
2023-05-14T10:12:44.554Z,41.99
2023-05-14T10:13:45.424Z,41.99
2023-05-14T10:14:46.340Z,41.39
2023-05-14T10:15:47.197Z,41.19
2023-05-14T10:16:48.092Z,40.58
2023-05-14T10:17:49.040Z,39.64
2023-05-14T10:18:49.923Z,39.22
2023-05-14T10:19:50.859Z,38.70
2023-05-14T10:20:51.751Z,38.56
2023-05-14T10:21:52.636Z,38.17
2023-05-14T10:22:53.510Z,38.46
2023-05-14T10:23:54.396Z,38.31
2023-05-14T10:24:55.290Z,38.72
2023-05-14T10:25:56.182Z,39.12
2023-05-14T10:26:57.040Z,40.14
2023-05-14T10:27:57.946Z,41.53
2023-05-14T10:28:58.822Z,41.93
2023-05-14T10:29:59.757Z,40.45
2023-05-14T10:31:00.865Z,41.25
2023-05-14T10:32:01.348Z,41.75
2023-05-14T10:33:02.281Z,41.77
2023-05-14T10:34:03.177Z,42.07
2023-05-14T10:35:04.080Z,41.80
2023-05-14T10:36:04.968Z,41.71
2023-05-14T10:37:05.850Z,41.80
2023-05-14T10:38:06.752Z,41.89
2023-05-14T10:39:07.631Z,41.11
2023-05-14T10:40:08.508Z,41.19
2023-05-14T10:41:09.426Z,41.17
2023-05-14T10:42:10.294Z,41.05
2023-05-14T10:43:11.214Z,40.72
2023-05-14T10:44:12.064Z,39.88
2023-05-14T10:45:12.975Z,38.76
2023-05-14T10:46:13.936Z,38.46
2023-05-14T10:47:14.842Z,38.89
2023-05-14T10:48:15.716Z,39.80
2023-05-14T10:49:20.967Z,40.12
2023-05-14T10:50:18.645Z,40.86
2023-05-14T10:51:18.058Z,41.47
2023-05-14T10:52:18.910Z,42.69
2023-05-14T10:53:19.828Z,42.82
2023-05-14T10:54:20.678Z,43.12
2023-05-14T10:55:21.588Z,43.21
2023-05-14T10:56:22.470Z,43.71
2023-05-14T10:57:23.332Z,42.02
2023-05-14T10:58:24.205Z,42.40
2023-05-14T10:59:25.090Z,41.89
2023-05-14T11:00:26.209Z,42.29
2023-05-14T11:01:26.693Z,42.10
2023-05-14T11:02:27.585Z,41.67
2023-05-14T11:03:28.492Z,41.99
2023-05-14T11:04:29.360Z,40.78
2023-05-14T11:05:30.265Z,40.16
2023-05-14T11:06:31.155Z,38.12
2023-05-14T11:07:32.019Z,36.29
2023-05-14T11:08:32.888Z,36.29
2023-05-14T11:09:33.764Z,36.07
2023-05-14T11:10:34.680Z,36.97
2023-05-14T11:11:35.579Z,36.97
2023-05-14T11:12:36.463Z,36.87
2023-05-14T11:13:37.366Z,37.98
2023-05-14T11:14:38.237Z,39.38
2023-05-14T11:15:39.160Z,38.31
2023-05-14T11:16:40.064Z,38.00
2023-05-14T11:17:40.991Z,37.62
2023-05-14T11:18:42.038Z,39.14
2023-05-14T11:19:42.550Z,38.34
2023-05-14T11:20:43.452Z,38.85
2023-05-14T11:21:44.404Z,39.18
2023-05-14T11:22:45.258Z,40.28
2023-05-14T11:23:46.142Z,40.09
2023-05-14T11:24:47.026Z,40.19
2023-05-14T11:25:47.928Z,40.47
2023-05-14T11:26:48.799Z,40.16
2023-05-14T11:27:49.716Z,40.66
2023-05-14T11:28:50.560Z,40.23
2023-05-14T11:29:51.441Z,40.23
2023-05-14T11:30:52.338Z,38.94
2023-05-14T11:31:53.376Z,37.44
2023-05-14T11:32:53.835Z,37.42
2023-05-14T11:33:54.253Z,36.39
2023-05-14T11:34:55.127Z,34.76
2023-05-14T11:35:56.041Z,33.63
2023-05-14T11:36:56.904Z,34.00
2023-05-14T11:37:57.795Z,33.48
2023-05-14T11:38:58.707Z,32.57
2023-05-14T11:39:59.576Z,30.21
2023-05-14T11:41:00.499Z,30.33
2023-05-14T11:42:01.386Z,29.94
2023-05-14T11:43:02.269Z,32.34
2023-05-14T11:44:03.167Z,33.35
2023-05-14T11:45:04.092Z,32.77
2023-05-14T11:46:05.040Z,34.27
2023-05-14T11:47:05.873Z,34.16
2023-05-14T11:48:06.803Z,34.36
2023-05-14T11:49:07.642Z,35.16
2023-05-14T11:50:09.669Z,35.38
2023-05-14T11:51:09.315Z,35.38
2023-05-14T11:52:10.206Z,36.07
2023-05-14T11:53:11.060Z,34.68
2023-05-14T11:54:11.965Z,34.48
2023-05-14T11:55:12.875Z,34.80
2023-05-14T11:56:13.756Z,34.89
2023-05-14T11:57:14.638Z,34.89
2023-05-14T11:58:15.496Z,34.99
2023-05-14T11:59:16.406Z,34.89
2023-05-14T12:00:17.322Z,35.16
2023-05-14T12:01:18.839Z,33.15
2023-05-14T12:02:18.796Z,32.93
2023-05-14T12:03:19.843Z,31.93
2023-05-14T12:04:20.383Z,31.80
2023-05-14T12:05:21.269Z,31.77
2023-05-14T12:06:22.159Z,31.15
2023-05-14T12:07:23.032Z,30.84
2023-05-14T12:08:23.923Z,31.57
2023-05-14T12:09:24.847Z,32.28
2023-05-14T12:10:25.850Z,32.81
2023-05-14T12:11:26.741Z,33.20
2023-05-14T12:12:27.135Z,34.91
2023-05-14T12:13:28.006Z,33.83
2023-05-14T12:14:28.921Z,34.15
2023-05-14T12:15:29.833Z,35.84
2023-05-14T12:16:30.803Z,35.26
2023-05-14T12:17:31.665Z,34.66
2023-05-14T12:18:32.659Z,34.68
2023-05-14T12:19:33.180Z,35.19
2023-05-14T12:20:34.070Z,36.11
2023-05-14T12:21:35.006Z,35.93
2023-05-14T12:22:37.143Z,36.22
2023-05-14T12:23:36.573Z,35.93
2023-05-14T12:24:37.470Z,36.52
2023-05-14T12:25:38.360Z,36.72
2023-05-14T12:26:39.277Z,36.24
2023-05-14T12:27:40.177Z,36.84
2023-05-14T12:28:41.047Z,37.56
2023-05-14T12:29:41.928Z,37.36
2023-05-14T12:30:42.835Z,37.88
2023-05-14T12:31:43.788Z,37.58
2023-05-14T12:32:44.688Z,37.54
2023-05-14T12:33:45.607Z,36.13
2023-05-14T12:34:46.489Z,35.39
2023-05-14T12:35:47.389Z,35.17
2023-05-14T12:36:48.272Z,34.00
2023-05-14T12:37:49.165Z,34.69
2023-05-14T12:38:50.052Z,34.91
2023-05-14T12:39:50.921Z,35.01
2023-05-14T12:40:51.816Z,33.63
2023-05-14T12:41:52.712Z,33.45
2023-05-14T12:42:55.539Z,34.14
2023-05-14T12:43:54.563Z,34.75
2023-05-14T12:44:55.448Z,34.55
2023-05-14T12:45:56.330Z,34.94
2023-05-14T12:46:57.313Z,35.74
2023-05-14T12:47:58.170Z,35.74
2023-05-14T12:48:59.028Z,35.83
2023-05-14T12:49:59.911Z,36.63
2023-05-14T12:51:00.789Z,36.11
2023-05-14T12:52:17.420Z,35.41
2023-05-14T12:53:03.496Z,34.99
2023-05-14T12:54:03.359Z,34.99
2023-05-14T12:55:04.245Z,35.39
2023-05-14T12:56:05.118Z,34.36
2023-05-14T12:57:06.029Z,34.63
2023-05-14T12:58:06.895Z,33.69
2023-05-14T12:59:07.786Z,32.45
2023-05-14T13:00:08.789Z,29.19
2023-05-14T13:01:09.383Z,29.37
2023-05-14T13:02:09.784Z,29.88
2023-05-14T13:03:10.693Z,31.30
2023-05-14T13:04:11.551Z,30.70